Time;durP1;ratioP1;P1;durP2;ratioP2;P2;SDS_P1;SDS_P2;PMS_P1;PMS_P2;Temp;Humidity;BMP_temperature;BMP_pressure;BME280_temperature;BME280_humidity;BME280_pressure;Samples;Min_cycle;Max_cycle;Signal;HPM_P1;HPM_P2
2023/11/03 00:00:59;;;;;;;2.80;1.20;;;7.10;99.90;;;;;;5056452;28;20413;-39
2023/11/03 00:03:25;;;;;;;2.00;1.00;;;7.10;99.90;;;;;;5056531;28;20571;-40
2023/11/03 00:05:50;;;;;;;2.97;1.07;;;7.00;99.90;;;;;;5056832;28;20416;-39
2023/11/03 00:08:17;;;;;;;4.37;1.30;;;7.10;99.90;;;;;;5056755;28;20212;-39
2023/11/03 00:10:43;;;;;;;2.77;1.40;;;7.00;99.90;;;;;;5057010;28;20483;-41
2023/11/03 00:13:09;;;;;;;3.63;1.20;;;7.00;99.90;;;;;;5055965;28;20428;-39
2023/11/03 00:15:36;;;;;;;2.10;1.83;;;7.00;99.90;;;;;;5056019;28;20517;-38
2023/11/03 00:18:01;;;;;;;5.00;1.00;;;6.90;99.90;;;;;;5057868;28;20213;-40
2023/11/03 00:20:27;;;;;;;2.97;1.23;;;6.90;92.50;;;;;;5056249;28;20428;-40
2023/11/03 00:22:52;;;;;;;2.07;1.20;;;6.90;61.80;;;;;;5054995;28;20209;-40
2023/11/03 00:25:18;;;;;;;3.60;1.40;;;6.90;23.50;;;;;;5054273;28;20189;-39
2023/11/03 00:27:46;;;;;;;2.63;1.30;;;6.90;8.50;;;;;;5054322;28;20215;-39
2023/11/03 00:30:12;;;;;;;4.80;1.40;;;6.90;1.00;;;;;;5057542;28;20233;-41
2023/11/03 00:32:38;;;;;;;4.77;1.53;;;6.80;1.00;;;;;;5057264;28;20429;-40
2023/11/03 00:35:08;;;;;;;1.77;1.30;;;6.80;1.00;;;;;;5057306;28;20467;-38
2023/11/03 00:37:35;;;;;;;3.87;1.40;;;6.80;1.00;;;;;;5058588;28;20489;-39
2023/11/03 00:40:03;;;;;;;2.97;1.33;;;6.80;1.00;;;;;;5058559;28;20420;-45
2023/11/03 00:42:29;;;;;;;4.33;1.80;;;6.70;1.00;;;;;;5057424;28;20412;-40
2023/11/03 00:44:55;;;;;;;3.43;1.10;;;6.70;1.00;;;;;;5059388;28;20489;-39
2023/11/03 00:47:21;;;;;;;2.83;1.00;;;6.70;1.00;;;;;;5059177;28;20436;-42
2023/11/03 00:49:46;;;;;;;3.03;1.50;;;6.70;1.00;;;;;;5057548;28;20186;-40
2023/11/03 00:52:12;;;;;;;4.17;1.97;;;6.70;1.00;;;;;;5040648;28;20197;-40
2023/11/03 00:54:38;;;;;;;2.00;1.23;;;6.70;1.00;;;;;;5056562;28;20603;-39
2023/11/03 00:57:05;;;;;;;3.77;1.50;;;6.60;1.00;;;;;;5056093;28;20192;-40
2023/11/03 00:59:30;;;;;;;4.83;1.50;;;6.60;1.00;;;;;;5056744;28;20421;-40
2023/11/03 01:01:56;;;;;;;2.10;1.40;;;6.60;1.00;;;;;;5056900;28;20436;-40
2023/11/03 01:04:22;;;;;;;2.23;1.23;;;6.60;1.00;;;;;;5056365;28;20736;-40
2023/11/03 01:06:48;;;;;;;3.63;1.43;;;6.50;1.00;;;;;;5056713;28;20207;-41
2023/11/03 01:09:14;;;;;;;2.40;1.20;;;6.50;1.00;;;;;;5058094;28;20174;-39
2023/11/03 01:11:40;;;;;;;2.50;1.37;;;6.60;1.00;;;;;;5057086;28;20416;-40
2023/11/03 01:14:09;;;;;;;2.90;1.20;;;6.50;1.00;;;;;;5057387;28;20677;-40
2023/11/03 01:16:36;;;;;;;1.70;1.30;;;6.50;1.00;;;;;;5056303;28;20432;-39
2023/11/03 01:19:05;;;;;;;2.03;1.13;;;6.50;1.00;;;;;;5056232;28;20475;-39
2023/11/03 01:21:31;;;;;;;5.17;1.40;;;6.50;1.00;;;;;;5057023;28;20419;-39
2023/11/03 01:23:57;;;;;;;4.10;1.23;;;6.50;1.00;;;;;;5057080;28;20446;-38
2023/11/03 01:26:25;;;;;;;2.13;1.10;;;6.50;1.00;;;;;;5057409;28;20531;-40
2023/11/03 01:28:51;;;;;;;2.57;1.13;;;6.50;1.00;;;;;;5056567;28;20184;-39
2023/11/03 01:31:19;;;;;;;3.20;1.20;;;6.50;1.00;;;;;;5056803;28;20507;-36
2023/11/03 01:33:46;;;;;;;7.27;1.73;;;7.10;1.00;;;;;;5057150;28;20409;-40
2023/11/03 01:36:13;;;;;;;4.87;1.63;;;8.10;1.00;;;;;;5057259;28;20464;-38
2023/11/03 01:38:38;;;;;;;3.90;1.70;;;8.40;1.00;;;;;;5057998;28;20749;-40
2023/11/03 01:41:05;;;;;;;4.37;1.57;;;8.20;1.00;;;;;;5057201;28;20432;-40
2023/11/03 01:43:31;;;;;;;2.23;0.93;;;8.00;1.00;;;;;;5057175;28;20523;-39
2023/11/03 01:45:58;;;;;;;2.53;1.23;;;7.80;1.00;;;;;;5056775;28;20503;-39
2023/11/03 01:48:26;;;;;;;4.13;1.30;;;7.60;99.90;;;;;;5055730;28;20417;-39
2023/11/03 01:50:53;;;;;;;3.67;1.17;;;7.40;99.90;;;;;;5055518;28;20431;-39
2023/11/03 01:53:19;;;;;;;3.90;1.37;;;7.30;30.00;;;;;;5054994;28;20432;-39
2023/11/03 01:55:45;;;;;;;1.80;1.10;;;7.20;1.00;;;;;;5055825;28;20854;-38
2023/11/03 01:58:11;;;;;;;2.30;1.07;;;7.10;1.00;;;;;;5054713;28;20178;-39
2023/11/03 02:00:37;;;;;;;3.07;1.00;;;7.00;1.00;;;;;;5037965;28;20467;-39
2023/11/03 02:03:03;;;;;;;4.30;1.40;;;6.90;99.90;;;;;;5054541;28;20432;-39
2023/11/03 02:05:28;;;;;;;2.90;1.40;;;6.90;99.90;;;;;;5054278;28;20429;-41
2023/11/03 02:07:54;;;;;;;5.13;1.23;;;6.90;99.90;;;;;;5037619;28;20186;-39
2023/11/03 02:10:20;;;;;;;5.27;1.73;;;6.80;99.90;;;;;;5036473;28;20202;-39
2023/11/03 02:12:46;;;;;;;4.07;1.40;;;6.80;99.90;;;;;;5055467;28;20181;-39
2023/11/03 02:15:12;;;;;;;4.10;1.40;;;6.80;99.90;;;;;;5057004;28;20467;-40
2023/11/03 02:17:38;;;;;;;4.53;1.37;;;6.80;99.90;;;;;;5057361;28;20559;-40
2023/11/03 02:20:06;;;;;;;5.40;1.00;;;6.70;99.90;;;;;;5039403;28;20688;-40
2023/11/03 02:22:32;;;;;;;1.97;1.00;;;6.70;99.90;;;;;;5056014;28;20513;-40
2023/11/03 02:24:58;;;;;;;4.57;1.30;;;6.70;99.90;;;;;;5055995;28;20467;-39
2023/11/03 02:27:23;;;;;;;2.00;1.03;;;6.70;99.90;;;;;;5055539;28;20445;-38
2023/11/03 02:29:49;;;;;;;5.30;1.30;;;6.70;99.90;;;;;;5055993;28;20181;-38
2023/11/03 02:32:14;;;;;;;2.93;1.20;;;6.70;99.90;;;;;;5056578;28;20241;-39
2023/11/03 02:34:40;;;;;;;4.50;1.73;;;6.70;99.90;;;;;;5056384;28;20213;-39
2023/11/03 02:37:06;;;;;;;3.73;1.10;;;6.60;99.90;;;;;;5056061;28;20236;-39
2023/11/03 02:39:31;;;;;;;4.33;1.43;;;6.60;99.90;;;;;;5057113;28;20173;-39
2023/11/03 02:41:57;;;;;;;1.93;1.10;;;6.60;99.90;;;;;;5056044;28;20178;-41
2023/11/03 02:44:22;;;;;;;4.50;1.50;;;6.60;99.90;;;;;;5056473;28;20564;-39
2023/11/03 02:46:48;;;;;;;6.80;2.17;;;6.60;99.90;;;;;;5056367;28;20491;-39
2023/11/03 02:49:14;;;;;;;4.10;1.40;;;6.60;99.90;;;;;;5055539;28;20238;-40
2023/11/03 02:51:39;;;;;;;2.53;1.00;;;6.60;99.90;;;;;;5056150;28;20467;-40
2023/11/03 02:54:07;;;;;;;6.70;2.20;;;6.60;99.90;;;;;;5056170;28;20267;-39
2023/11/03 02:56:33;;;;;;;7.90;1.67;;;6.60;99.90;;;;;;5056410;28;20213;-38
2023/11/03 02:58:58;;;;;;;2.90;1.20;;;6.60;99.90;;;;;;5057162;28;20683;-39
2023/11/03 03:01:28;;;;;;;2.50;0.90;;;6.60;99.90;;;;;;5055996;28;20435;-38
2023/11/03 03:03:54;;;;;;;6.13;1.30;;;6.60;99.90;;;;;;5056628;28;20182;-38
2023/11/03 03:06:19;;;;;;;2.87;0.93;;;6.60;99.90;;;;;;5057621;28;20421;-39
2023/11/03 03:08:45;;;;;;;5.83;1.87;;;6.60;99.90;;;;;;5056943;28;20190;-38
2023/11/03 03:11:11;;;;;;;4.40;0.97;;;6.60;99.90;;;;;;5057351;28;20185;-39
2023/11/03 03:13:36;;;;;;;2.77;1.03;;;6.60;99.90;;;;;;5057849;28;20182;-38
2023/11/03 03:16:02;;;;;;;3.73;2.03;;;6.60;99.90;;;;;;5058524;28;20528;-39
2023/11/03 03:18:28;;;;;;;2.97;1.57;;;6.60;99.90;;;;;;5059066;28;20549;-37
2023/11/03 03:20:53;;;;;;;5.70;1.60;;;6.60;99.90;;;;;;5056134;28;20186;-39
2023/11/03 03:23:19;;;;;;;3.40;1.47;;;6.60;99.90;;;;;;5054902;28;20240;-39
2023/11/03 03:25:45;;;;;;;2.20;1.07;;;6.60;99.90;;;;;;5055883;28;20189;-38
2023/11/03 03:28:25;;;;;;;2.17;0.90;;;6.60;99.90;;;;;;5056950;28;20434;-38
2023/11/03 03:30:51;;;;;;;8.20;2.13;;;6.60;99.90;;;;;;5056544;28;20255;-38
2023/11/03 03:33:17;;;;;;;2.40;0.80;;;6.60;99.90;;;;;;5056101;28;20443;-39
2023/11/03 03:35:42;;;;;;;3.20;1.20;;;6.60;99.90;;;;;;5054955;28;20205;-39
2023/11/03 03:38:08;;;;;;;2.67;1.00;;;6.60;99.90;;;;;;5058092;28;20201;-38
2023/11/03 03:40:33;;;;;;;5.33;1.40;;;6.60;99.90;;;;;;5061207;28;20178;-38
2023/11/03 03:43:02;;;;;;;3.10;1.17;;;6.60;99.90;;;;;;5059830;28;20242;-37
2023/11/03 03:45:29;;;;;;;3.60;1.10;;;6.60;99.90;;;;;;5060050;28;20193;-39
2023/11/03 03:47:54;;;;;;;4.47;1.10;;;6.60;99.90;;;;;;5059485;28;20463;-42
2023/11/03 03:50:20;;;;;;;2.37;0.90;;;6.60;99.90;;;;;;5059417;28;20431;-40
2023/11/03 03:52:46;;;;;;;4.63;1.40;;;6.60;99.90;;;;;;5058759;28;20510;-41
2023/11/03 03:55:11;;;;;;;2.00;1.00;;;6.60;99.90;;;;;;5058944;28;20298;-41
2023/11/03 03:57:37;;;;;;;3.33;1.00;;;6.60;99.90;;;;;;5058899;28;20196;-39
2023/11/03 04:00:04;;;;;;;4.13;1.10;;;6.60;99.90;;;;;;5058429;28;20194;-39
2023/11/03 04:02:30;;;;;;;2.40;1.07;;;6.70;99.90;;;;;;5059092;28;20213;-40
2023/11/03 04:04:56;;;;;;;4.30;1.47;;;6.70;99.90;;;;;;5057541;28;20790;-40
2023/11/03 04:07:21;;;;;;;1.93;1.33;;;6.70;99.90;;;;;;5057740;28;20190;-39
2023/11/03 04:09:47;;;;;;;4.70;1.23;;;6.70;99.90;;;;;;5057210;28;20471;-40
2023/11/03 04:12:13;;;;;;;5.97;1.50;;;6.80;99.90;;;;;;5058563;28;20197;-40
2023/11/03 04:14:39;;;;;;;3.00;1.87;;;6.80;99.90;;;;;;5057843;28;20217;-41
2023/11/03 04:17:05;;;;;;;2.13;0.97;;;6.80;99.90;;;;;;5058132;28;20472;-39
2023/11/03 04:19:31;;;;;;;2.13;0.87;;;6.80;99.90;;;;;;5059056;28;20466;-42
2023/11/03 04:21:57;;;;;;;3.87;1.10;;;6.90;99.90;;;;;;5059652;28;20428;-45
2023/11/03 04:24:23;;;;;;;4.60;1.23;;;6.90;99.90;;;;;;5060018;28;20435;-40
2023/11/03 04:26:49;;;;;;;7.13;1.30;;;6.90;99.90;;;;;;5059362;28;20178;-40
2023/11/03 04:29:14;;;;;;;4.30;0.90;;;7.00;99.90;;;;;;5059691;28;20795;-39
2023/11/03 04:31:40;;;;;;;3.30;1.37;;;7.00;99.90;;;;;;5059275;28;20226;-46
2023/11/03 04:34:06;;;;;;;2.87;0.97;;;7.00;99.90;;;;;;5057386;28;20439;-40
2023/11/03 04:36:31;;;;;;;2.97;1.27;;;7.00;99.90;;;;;;5057161;28;20228;-40
2023/11/03 04:38:57;;;;;;;2.10;1.20;;;7.00;99.90;;;;;;5059051;28;20182;-39
2023/11/03 04:41:23;;;;;;;2.03;1.00;;;7.00;99.90;;;;;;5058962;28;20280;-39
2023/11/03 04:43:49;;;;;;;3.90;0.93;;;7.00;99.90;;;;;;5058325;28;20502;-39
2023/11/03 04:46:14;;;;;;;2.83;1.80;;;7.00;99.90;;;;;;5058438;28;20268;-41
2023/11/03 04:48:40;;;;;;;1.70;1.10;;;7.00;99.90;;;;;;5058695;28;20190;-39
2023/11/03 04:51:08;;;;;;;7.03;1.93;;;7.10;99.90;;;;;;5057181;28;20194;-40
2023/11/03 04:53:34;;;;;;;3.57;1.20;;;7.10;99.90;;;;;;5057988;28;20201;-39
2023/11/03 04:56:00;;;;;;;1.67;0.97;;;7.10;99.90;;;;;;5057823;28;20541;-39
2023/11/03 04:58:25;;;;;;;3.40;1.20;;;7.10;99.90;;;;;;5058424;28;20193;-39
2023/11/03 05:00:51;;;;;;;5.50;1.20;;;7.10;99.90;;;;;;5058555;28;20444;-38
2023/11/03 05:03:18;;;;;;;3.07;1.10;;;7.10;99.90;;;;;;5057848;28;20582;-40
2023/11/03 05:05:44;;;;;;;2.40;1.00;;;7.10;99.90;;;;;;5057408;28;20496;-39
2023/11/03 05:08:09;;;;;;;2.70;1.30;;;7.20;99.90;;;;;;5057735;28;20805;-41
2023/11/03 05:10:35;;;;;;;3.40;1.20;;;7.20;99.90;;;;;;5056096;28;20248;-40
2023/11/03 05:13:01;;;;;;;4.30;1.57;;;7.20;99.90;;;;;;5056788;28;20332;-42
2023/11/03 05:15:27;;;;;;;2.40;1.40;;;7.20;99.90;;;;;;5054895;28;20244;-40
2023/11/03 05:17:52;;;;;;;1.73;1.20;;;7.20;99.90;;;;;;5054232;28;20575;-39
2023/11/03 05:20:19;;;;;;;6.00;1.70;;;7.20;99.90;;;;;;5053577;28;20428;-41
2023/11/03 05:22:45;;;;;;;3.67;0.97;;;7.20;99.90;;;;;;5054108;28;20277;-40
2023/11/03 05:25:12;;;;;;;3.40;1.20;;;7.30;99.90;;;;;;5056102;28;20498;-39
2023/11/03 05:27:38;;;;;;;3.03;1.30;;;7.20;99.90;;;;;;5055670;28;20493;-41
2023/11/03 05:30:05;;;;;;;4.10;1.13;;;7.20;99.90;;;;;;5056520;28;20439;-38
2023/11/03 05:32:33;;;;;;;6.00;1.20;;;7.30;99.90;;;;;;5055656;28;20432;-39
2023/11/03 05:35:00;;;;;;;3.50;1.30;;;7.30;99.90;;;;;;5055875;28;20483;-40
2023/11/03 05:37:31;;;;;;;2.70;1.30;;;7.30;97.90;;;;;;5056721;28;20436;-40
2023/11/03 05:39:57;;;;;;;4.20;1.77;;;7.30;75.20;;;;;;5055567;28;20527;-42
2023/11/03 05:42:23;;;;;;;3.63;1.00;;;7.30;34.50;;;;;;5056473;28;20527;-40
2023/11/03 05:44:48;;;;;;;2.43;1.33;;;7.30;52.80;;;;;;5055588;28;20280;-38
2023/11/03 05:47:14;;;;;;;4.67;1.20;;;7.30;74.20;;;;;;5053961;28;20189;-42
2023/11/03 05:49:40;;;;;;;4.43;1.40;;;7.30;92.40;;;;;;5055457;28;20193;-39
2023/11/03 05:52:05;;;;;;;3.70;1.40;;;7.30;99.90;;;;;;5055815;28;20194;-40
2023/11/03 05:54:31;;;;;;;3.27;1.47;;;7.30;99.90;;;;;;5053743;28;20178;-38
2023/11/03 05:56:57;;;;;;;4.80;1.40;;;7.30;99.90;;;;;;5055070;28;20374;-40
2023/11/03 05:59:23;;;;;;;3.10;1.37;;;7.30;84.90;;;;;;5054835;28;20201;-40
2023/11/03 06:01:49;;;;;;;3.40;1.50;;;7.30;58.50;;;;;;5053255;28;20488;-39
2023/11/03 06:04:14;;;;;;;4.93;2.27;;;7.30;52.60;;;;;;5054595;28;20409;-39
2023/11/03 06:06:41;;;;;;;3.87;1.40;;;7.30;41.80;;;;;;5055605;28;20580;-39
2023/11/03 06:09:07;;;;;;;5.23;1.40;;;7.30;27.20;;;;;;5056913;28;20239;-39
2023/11/03 06:11:33;;;;;;;1.67;1.00;;;7.40;26.10;;;;;;5054475;28;20424;-39
2023/11/03 06:13:59;;;;;;;1.97;1.53;;;7.40;24.50;;;;;;5054109;28;20275;-38
2023/11/03 06:16:25;;;;;;;3.67;1.63;;;7.30;26.30;;;;;;5055047;28;20213;-39
2023/11/03 06:18:51;;;;;;;2.13;1.53;;;7.40;30.10;;;;;;5054648;28;20508;-39
2023/11/03 06:21:16;;;;;;;4.27;1.40;;;7.40;46.80;;;;;;5053285;28;20771;-42
2023/11/03 06:23:42;;;;;;;3.17;1.77;;;7.40;74.40;;;;;;5053016;28;20182;-38
2023/11/03 06:26:07;;;;;;;2.60;1.53;;;7.40;91.50;;;;;;5049806;28;20189;-39
2023/11/03 06:28:35;;;;;;;7.20;2.00;;;7.40;95.10;;;;;;5052373;28;20186;-39
2023/11/03 06:31:01;;;;;;;4.63;1.37;;;7.40;99.90;;;;;;5050290;28;20319;-38
2023/11/03 06:33:26;;;;;;;4.50;1.43;;;7.40;99.90;;;;;;5051328;28;20523;-40
2023/11/03 06:35:52;;;;;;;3.93;1.40;;;7.40;99.90;;;;;;5053005;28;20213;-39
2023/11/03 06:38:18;;;;;;;2.67;1.43;;;7.40;99.90;;;;;;5052797;28;20268;-42
2023/11/03 06:40:43;;;;;;;2.40;1.70;;;7.40;99.90;;;;;;5052298;28;20523;-39
2023/11/03 06:43:09;;;;;;;1.90;1.50;;;7.40;99.90;;;;;;5033816;28;20189;-39
2023/11/03 06:45:35;;;;;;;2.80;1.90;;;7.50;99.90;;;;;;5052909;28;20507;-39
2023/11/03 06:48:00;;;;;;;2.90;1.97;;;7.50;99.90;;;;;;5050826;28;20201;-39
2023/11/03 06:50:26;;;;;;;2.13;1.30;;;7.50;99.90;;;;;;5049647;28;20523;-40
2023/11/03 06:52:52;;;;;;;1.80;1.20;;;7.50;99.90;;;;;;5053175;28;20182;-39
2023/11/03 06:55:17;;;;;;;1.87;1.27;;;7.60;99.90;;;;;;5053795;28;20205;-39
2023/11/03 06:57:43;;;;;;;3.30;1.60;;;7.70;99.90;;;;;;5052459;28;20511;-40
2023/11/03 07:00:12;;;;;;;2.63;1.17;;;7.70;99.90;;;;;;5053803;28;20496;-39
2023/11/03 07:02:38;;;;;;;3.30;1.60;;;7.70;99.90;;;;;;5053060;28;20574;-40
2023/11/03 07:05:04;;;;;;;2.23;1.03;;;7.80;99.60;;;;;;5053380;28;20440;-39
2023/11/03 07:07:30;;;;;;;2.17;1.00;;;7.80;1.00;;;;;;5053201;28;20465;-39
2023/11/03 07:09:56;;;;;;;4.50;1.63;;;7.80;1.00;;;;;;5055251;28;20429;-38
2023/11/03 07:12:21;;;;;;;4.13;1.17;;;7.80;1.00;;;;;;5037601;28;20194;-38
2023/11/03 07:14:47;;;;;;;3.83;1.27;;;7.90;1.00;;;;;;5058803;28;20214;-40
2023/11/03 07:17:13;;;;;;;3.50;1.50;;;7.90;1.00;;;;;;5058976;28;20178;-38
2023/11/03 07:19:39;;;;;;;4.27;1.20;;;7.90;1.00;;;;;;5056915;28;20412;-39
2023/11/03 07:22:05;;;;;;;5.50;1.60;;;8.00;1.00;;;;;;5059322;28;20185;-37
2023/11/03 07:24:31;;;;;;;4.07;1.63;;;8.00;1.00;;;;;;5058433;28;20714;-39
2023/11/03 07:26:58;;;;;;;2.00;1.20;;;8.10;1.00;;;;;;5058494;28;20196;-38
2023/11/03 07:29:24;;;;;;;5.20;1.47;;;8.10;1.00;;;;;;5058413;28;20205;-38
2023/11/03 07:31:49;;;;;;;3.20;1.53;;;8.10;1.00;;;;;;5057942;28;20487;-39
2023/11/03 07:34:15;;;;;;;2.93;1.30;;;8.10;1.00;;;;;;5057379;28;20200;-39
2023/11/03 07:36:41;;;;;;;5.60;1.50;;;8.20;1.00;;;;;;5057270;28;20209;-38
2023/11/03 07:39:06;;;;;;;5.07;1.93;;;8.20;1.00;;;;;;5059121;28;20182;-40
2023/11/03 07:41:36;;;;;;;3.83;1.67;;;8.20;99.90;;;;;;5059400;28;20181;-38
2023/11/03 07:44:02;;;;;;;6.13;1.80;;;8.30;99.90;;;;;;5057835;28;20584;-38
2023/11/03 07:46:30;;;;;;;4.30;1.53;;;8.30;99.90;;;;;;5057117;28;20428;-37
2023/11/03 07:49:00;;;;;;;5.07;1.50;;;8.40;99.90;;;;;;5059239;28;20822;-37
2023/11/03 07:51:26;;;;;;;3.73;1.20;;;8.40;99.90;;;;;;5059986;28;20498;-38
2023/11/03 07:53:54;;;;;;;3.93;1.30;;;8.50;99.90;;;;;;5056402;28;20447;-39
2023/11/03 07:56:21;;;;;;;1.70;1.23;;;8.60;22.00;;;;;;5058400;28;20476;-37
2023/11/03 07:58:48;;;;;;;2.67;1.43;;;8.60;1.00;;;;;;5057810;28;20427;-38
2023/11/03 08:01:14;;;;;;;6.20;1.63;;;8.70;1.00;;;;;;5056202;28;20416;-36
2023/11/03 08:03:40;;;;;;;2.73;1.20;;;8.70;1.00;;;;;;5055801;28;20423;-37
2023/11/03 08:06:06;;;;;;;2.40;1.30;;;8.80;99.90;;;;;;5056217;28;20424;-38
2023/11/03 08:08:32;;;;;;;5.53;1.57;;;8.90;99.90;;;;;;5054353;28;20567;-37
2023/11/03 08:10:58;;;;;;;3.30;1.20;;;8.90;28.50;;;;;;5053481;28;20413;-37
2023/11/03 08:13:24;;;;;;;3.80;1.53;;;9.00;1.00;;;;;;5052429;28;20443;-37
2023/11/03 08:15:52;;;;;;;3.53;1.20;;;9.10;1.00;;;;;;5054208;28;20304;-36
2023/11/03 08:18:18;;;;;;;4.90;3.00;;;9.20;99.90;;;;;;5053714;28;20201;-36
2023/11/03 08:20:44;;;;;;;3.93;1.50;;;9.20;21.30;;;;;;5056983;28;20416;-37
2023/11/03 08:23:09;;;;;;;2.20;1.10;;;9.30;1.00;;;;;;5037783;28;20583;-37
2023/11/03 08:25:35;;;;;;;2.50;1.43;;;9.40;1.00;;;;;;5055424;28;20254;-39
2023/11/03 08:28:01;;;;;;;1.67;1.07;;;9.50;99.90;;;;;;5054950;28;20181;-38
2023/11/03 08:30:27;;;;;;;2.43;1.30;;;9.60;1.00;;;;;;5056457;28;20468;-38
2023/11/03 08:32:53;;;;;;;3.50;1.60;;;9.70;1.00;;;;;;5056369;28;20857;-37
2023/11/03 08:35:20;;;;;;;2.33;1.23;;;9.80;1.00;;;;;;5056389;28;20221;-40
2023/11/03 08:37:47;;;;;;;4.13;1.67;;;10.00;1.00;;;;;;5057468;28;20412;-37
2023/11/03 08:40:16;;;;;;;4.87;1.40;;;10.10;99.90;;;;;;5056511;28;20710;-38
2023/11/03 08:42:44;;;;;;;2.63;1.43;;;10.30;1.00;;;;;;5040545;28;20686;-41
2023/11/03 08:45:11;;;;;;;2.77;1.30;;;10.30;1.00;;;;;;5055621;28;20428;-38
2023/11/03 08:47:41;;;;;;;5.13;1.50;;;10.40;1.00;;;;;;5038014;28;20798;-39
2023/11/03 08:50:10;;;;;;;3.53;1.17;;;10.60;99.90;;;;;;5057990;28;20432;-37
2023/11/03 08:52:38;;;;;;;2.40;1.17;;;10.70;90.50;;;;;;5058263;28;20421;-39
2023/11/03 08:55:08;;;;;;;1.80;1.20;;;10.70;1.00;;;;;;5036087;28;20508;-39
2023/11/03 08:57:35;;;;;;;1.97;1.30;;;10.80;1.00;;;;;;5057959;28;20420;-38
2023/11/03 09:00:08;;;;;;;2.33;1.50;;;10.90;1.00;;;;;;5056249;28;20701;-41
2023/11/03 09:02:33;;;;;;;3.20;1.23;;;11.00;1.00;;;;;;5053601;28;20420;-38
2023/11/03 09:05:00;;;;;;;3.07;1.30;;;11.10;1.00;;;;;;5053204;28;20471;-40
2023/11/03 09:07:26;;;;;;;2.17;1.10;;;11.20;99.90;;;;;;5054194;28;20355;-39
2023/11/03 09:09:52;;;;;;;3.43;1.30;;;11.30;99.90;;;;;;5053357;28;20515;-37
2023/11/03 09:12:17;;;;;;;3.20;2.07;;;11.40;99.90;;;;;;5054390;28;20869;-38
2023/11/03 09:14:43;;;;;;;4.43;1.30;;;11.40;45.60;;;;;;5037594;28;20197;-39
2023/11/03 09:17:09;;;;;;;2.50;1.47;;;11.40;10.50;;;;;;5056480;28;20182;-39
2023/11/03 09:19:35;;;;;;;3.80;1.30;;;11.40;1.00;;;;;;5056726;28;20472;-40
2023/11/03 09:22:01;;;;;;;1.63;1.07;;;11.40;1.00;;;;;;5056913;28;20424;-40
2023/11/03 09:24:27;;;;;;;4.87;1.77;;;11.40;1.00;;;;;;5056308;28;20303;-39
2023/11/03 09:26:53;;;;;;;1.73;0.87;;;11.50;1.00;;;;;;5038768;28;20416;-40
2023/11/03 09:29:19;;;;;;;2.30;1.47;;;11.50;1.00;;;;;;5056270;28;20182;-38
2023/11/03 09:31:47;;;;;;;3.17;1.17;;;11.60;1.00;;;;;;5057062;28;20206;-38
2023/11/03 09:34:13;;;;;;;3.83;1.60;;;11.60;1.00;;;;;;5039742;28;20523;-38
2023/11/03 09:36:39;;;;;;;3.70;1.30;;;11.70;1.00;;;;;;5038924;28;20543;-38
2023/11/03 09:39:05;;;;;;;2.70;1.10;;;11.70;1.00;;;;;;5056631;28;20429;-40
2023/11/03 09:41:39;;;;;;;2.40;1.40;;;11.80;1.00;;;;;;5039153;28;20451;-37
2023/11/03 09:44:05;;;;;;;2.00;1.10;;;11.90;1.00;;;;;;5039584;28;20562;-37
2023/11/03 09:46:33;;;;;;;4.90;2.40;;;12.00;99.90;;;;;;5034126;28;20843;-37
2023/11/03 09:48:58;;;;;;;5.60;2.23;;;12.10;99.90;;;;;;5053346;28;20695;-38
2023/11/03 09:51:25;;;;;;;3.93;1.90;;;12.20;99.90;;;;;;5057263;28;20446;-38
2023/11/03 09:53:52;;;;;;;6.93;1.80;;;12.20;99.90;;;;;;5037880;28;20177;-39
2023/11/03 09:56:19;;;;;;;3.50;1.77;;;12.40;99.90;;;;;;5037578;28;20475;-37
2023/11/03 09:58:46;;;;;;;3.20;1.33;;;12.50;99.90;;;;;;5055540;28;20412;-39
2023/11/03 10:01:15;;;;;;;2.73;1.40;;;12.60;99.90;;;;;;5056000;28;20670;-40
2023/11/03 10:03:42;;;;;;;3.47;1.80;;;12.60;99.90;;;;;;5054078;28;20424;-39
2023/11/03 10:06:08;;;;;;;4.10;1.57;;;12.70;99.90;;;;;;5052532;28;20532;-39
2023/11/03 10:08:39;;;;;;;3.80;1.90;;;12.80;99.90;;;;;;5053178;28;20428;-40
2023/11/03 10:11:05;;;;;;;2.13;1.60;;;12.90;99.90;;;;;;5054547;28;20432;-38
2023/11/03 10:13:33;;;;;;;2.73;1.40;;;13.00;99.90;;;;;;5053107;28;20503;-39
2023/11/03 10:16:01;;;;;;;3.23;1.50;;;13.10;99.90;;;;;;5053278;28;20468;-41
2023/11/03 10:18:27;;;;;;;4.13;1.13;;;13.30;97.80;;;;;;5036082;28;20727;-38
2023/11/03 10:20:56;;;;;;;3.73;1.10;;;13.50;99.90;;;;;;5054289;28;20432;-38
2023/11/03 10:23:22;;;;;;;2.90;1.00;;;13.90;99.90;;;;;;5033755;28;20456;-38
2023/11/03 10:25:49;;;;;;;2.70;0.80;;;14.30;1.00;;;;;;5052874;28;20520;-39
2023/11/03 10:28:15;;;;;;;2.00;1.20;;;14.60;1.00;;;;;;5038628;28;20420;-39
2023/11/03 10:30:43;;;;;;;3.20;1.30;;;14.90;1.00;;;;;;5054788;28;20724;-39
2023/11/03 10:33:10;;;;;;;3.47;1.20;;;15.20;70.20;;;;;;5045984;28;20186;-40
2023/11/03 10:35:36;;;;;;;5.40;1.70;;;15.40;1.00;;;;;;5033943;28;20842;-38
2023/11/03 10:38:02;;;;;;;1.93;1.00;;;15.60;99.90;;;;;;5054491;28;20498;-38
2023/11/03 10:40:28;;;;;;;2.10;1.03;;;15.60;57.80;;;;;;5053506;28;20280;-39
2023/11/03 10:42:56;;;;;;;2.13;1.00;;;15.60;1.00;;;;;;5054215;28;20523;-38
2023/11/03 10:45:26;;;;;;;1.93;1.23;;;15.50;1.00;;;;;;5053410;28;20473;-40
2023/11/03 10:48:13;;;;;;;1.80;1.00;;;15.30;1.00;;;;;;5036354;28;20574;-41
2023/11/03 10:50:48;;;;;;;2.20;1.17;;;15.10;1.00;;;;;;5037536;28;20904;-38
2023/11/03 10:53:22;;;;;;;2.43;1.23;;;14.90;1.00;;;;;;5033795;28;20423;-39
2023/11/03 10:55:55;;;;;;;2.30;1.40;;;14.80;1.00;;;;;;5059619;28;20553;-39
2023/11/03 10:58:21;;;;;;;3.33;1.37;;;14.60;1.00;;;;;;5041344;28;20432;-38
2023/11/03 11:01:14;;;;;;;2.10;1.20;;;14.50;1.00;;;;;;5058729;28;20417;-39
2023/11/03 11:03:50;;;;;;;1.57;0.87;;;14.50;1.00;;;;;;5024151;28;20194;-40
2023/11/03 11:06:25;;;;;;;1.80;1.07;;;14.40;1.00;;;;;;5040372;28;21086;-41
2023/11/03 11:08:56;;;;;;;2.50;1.13;;;14.40;1.00;;;;;;5039334;28;20430;-39
2023/11/03 11:11:25;;;;;;;2.33;1.07;;;14.30;1.00;;;;;;5036089;28;20482;-38
2023/11/03 11:13:51;;;;;;;2.50;0.87;;;14.30;1.00;;;;;;5036836;28;20436;-39
2023/11/03 11:16:17;;;;;;;2.90;1.30;;;14.10;1.00;;;;;;5057305;28;20471;-38
2023/11/03 11:18:56;;;;;;;1.80;0.80;;;14.00;1.00;;;;;;5038953;28;20186;-38
2023/11/03 11:21:34;;;;;;;1.40;0.77;;;13.90;1.00;;;;;;5058578;28;20424;-45
2023/11/03 11:24:00;;;;;;;1.60;0.70;;;13.80;1.00;;;;;;5039993;28;20444;-38
2023/11/03 11:26:26;;;;;;;1.60;1.10;;;13.70;1.00;;;;;;5058096;28;20444;-39
2023/11/03 11:28:52;;;;;;;2.77;2.40;;;13.60;1.00;;;;;;5058714;28;20462;-40
2023/11/03 11:31:24;;;;;;;3.70;2.87;;;13.60;1.00;;;;;;5041832;28;20586;-38
2023/11/03 11:34:02;;;;;;;1.30;1.10;;;13.60;1.00;;;;;;5057284;28;20703;-36
2023/11/03 11:36:28;;;;;;;2.70;0.70;;;13.50;1.00;;;;;;5058429;28;20486;-50
2023/11/03 11:39:22;;;;;;;1.07;0.80;;;13.40;1.00;;;;;;5056404;28;20423;-40
2023/11/03 11:41:54;;;;;;;1.00;0.50;;;13.40;1.00;;;;;;5053377;28;20432;-38
2023/11/03 11:44:25;;;;;;;0.80;0.40;;;13.50;1.00;;;;;;5057948;28;20667;-39
2023/11/03 11:46:52;;;;;;;1.10;0.47;;;13.60;1.00;;;;;;5056806;28;20575;-38
2023/11/03 11:49:21;;;;;;;1.10;0.43;;;13.80;1.00;;;;;;5057361;28;20865;-38
2023/11/03 11:51:48;;;;;;;1.00;0.57;;;13.80;1.00;;;;;;5058018;28;20556;-40
2023/11/03 11:54:16;;;;;;;1.50;0.70;;;13.80;1.00;;;;;;5040029;28;20436;-38
2023/11/03 11:56:42;;;;;;;1.17;0.60;;;13.80;1.00;;;;;;5058225;28;20491;-38
2023/11/03 11:59:09;;;;;;;1.73;0.40;;;13.70;1.00;;;;;;5056971;28;20474;-38
2023/11/03 12:01:34;;;;;;;1.63;0.60;;;13.70;1.00;;;;;;5056294;28;20180;-39
2023/11/03 12:04:04;;;;;;;2.53;0.53;;;13.70;1.00;;;;;;5037396;28;20428;-39
2023/11/03 12:06:31;;;;;;;0.90;0.43;;;13.80;1.00;;;;;;5053805;28;20254;-39
2023/11/03 12:08:58;;;;;;;1.03;0.37;;;13.90;1.00;;;;;;5054422;28;20573;-38
2023/11/03 12:11:24;;;;;;;0.90;0.40;;;14.00;1.00;;;;;;5054062;28;20515;-38
2023/11/03 12:13:50;;;;;;;1.30;0.60;;;14.20;1.00;;;;;;5055921;28;20456;-38
2023/11/03 12:16:19;;;;;;;1.10;0.50;;;14.30;1.00;;;;;;5037788;28;21015;-40
2023/11/03 12:18:45;;;;;;;0.80;0.40;;;14.40;1.00;;;;;;5056506;28;20284;-38
2023/11/03 12:21:11;;;;;;;1.80;0.57;;;14.60;1.00;;;;;;5055923;28;20424;-37
2023/11/03 12:23:39;;;;;;;1.03;0.50;;;14.80;1.00;;;;;;5055427;28;20506;-38
2023/11/03 12:26:07;;;;;;;1.17;0.40;;;14.90;1.00;;;;;;5056543;28;20284;-38
2023/11/03 12:28:33;;;;;;;1.83;0.60;;;15.10;1.00;;;;;;5056010;28;21002;-38
2023/11/03 12:31:02;;;;;;;1.10;0.57;;;15.50;1.00;;;;;;5055156;28;20526;-40
2023/11/03 12:33:30;;;;;;;0.90;0.40;;;15.80;1.00;;;;;;5055772;28;20220;-38
2023/11/03 12:35:56;;;;;;;2.00;0.80;;;16.00;1.00;;;;;;5056082;28;20496;-39
2023/11/03 12:38:21;;;;;;;1.37;0.70;;;16.20;1.00;;;;;;5056971;28;20427;-41
2023/11/03 12:40:47;;;;;;;3.47;2.03;;;16.30;1.00;;;;;;5055736;28;20700;-38
2023/11/03 12:43:15;;;;;;;2.97;1.10;;;16.40;1.00;;;;;;5056709;28;20182;-41
2023/11/03 12:45:41;;;;;;;1.10;0.60;;;16.30;1.00;;;;;;5056654;28;20444;-38
2023/11/03 12:48:18;;;;;;;0.90;0.40;;;16.10;1.00;;;;;;5056511;28;20535;-40
2023/11/03 12:50:57;;;;;;;2.03;0.57;;;15.90;1.00;;;;;;5035295;28;20512;-37
2023/11/03 12:53:24;;;;;;;1.73;0.47;;;15.90;1.00;;;;;;5054340;28;20412;-39
2023/11/03 12:56:04;;;;;;;1.63;0.60;;;16.10;1.00;;;;;;5036656;28;20621;-39